Time;durP1;ratioP1;P1;durP2;ratioP2;P2;SDS_P1;SDS_P2;PMS_P1;PMS_P2;Temp;Humidity;BMP_temperature;BMP_pressure;BME280_temperature;BME280_humidity;BME280_pressure;Samples;Min_cycle;Max_cycle;Signal;HPM_P1;HPM_P2
2022/08/04 00:04:02;;;;;;;3.60;3.30;;;;;;;;;;10204613;28;20051;-72
2022/08/04 00:09:08;;;;;;;3.58;3.28;;;;;;;;;;10211521;28;20047;-72
2022/08/04 00:14:12;;;;;;;3.90;3.20;;;;;;;;;;10205844;28;20087;-73
2022/08/04 00:19:35;;;;;;;3.40;3.13;;;;;;;;;;10210092;28;20679;-72
2022/08/04 00:24:37;;;;;;;3.55;3.08;;;;;;;;;;10192541;28;20039;-73
2022/08/04 00:29:38;;;;;;;6.30;3.58;;;;;;;;;;10202513;28;20059;-73
2022/08/04 00:34:38;;;;;;;3.55;3.10;;;;;;;;;;10204979;28;20047;-72
2022/08/04 00:39:39;;;;;;;4.30;3.63;;;;;;;;;;10200987;28;20043;-73
2022/08/04 00:44:48;;;;;;;4.07;3.55;;;;;;;;;;10201533;28;20054;-73
2022/08/04 00:49:57;;;;;;;3.42;3.13;;;;;;;;;;10202836;28;20051;-72
2022/08/04 00:54:57;;;;;;;5.72;5.13;;;;;;;;;;10209886;28;20062;-72
2022/08/04 01:00:13;;;;;;;6.32;5.68;;;;;;;;;;10201969;28;20059;-72
2022/08/04 01:05:19;;;;;;;5.18;4.70;;;;;;;;;;10206196;28;20047;-73
2022/08/04 01:10:37;;;;;;;3.92;3.40;;;;;;;;;;10210797;28;20043;-72
2022/08/04 01:15:48;;;;;;;3.22;2.92;;;;;;;;;;10203600;28;20912;-72
2022/08/04 01:21:07;;;;;;;3.65;3.35;;;;;;;;;;10199029;28;20048;-72
2022/08/04 01:26:07;;;;;;;3.45;3.15;;;;;;;;;;10202074;28;20723;-71
2022/08/04 01:31:13;;;;;;;3.30;3.00;;;;;;;;;;10203845;29;20047;-73
2022/08/04 01:36:14;;;;;;;4.03;3.58;;;;;;;;;;10210428;28;20304;-72
2022/08/04 01:41:18;;;;;;;3.60;3.30;;;;;;;;;;10173133;29;20048;-72
2022/08/04 01:46:18;;;;;;;3.05;2.85;;;;;;;;;;10200470;29;20097;-73
2022/08/04 01:51:20;;;;;;;4.20;3.75;;;;;;;;;;10198196;28;20055;-72
2022/08/04 01:56:21;;;;;;;3.60;3.30;;;;;;;;;;10196778;28;20507;-72
2022/08/04 02:01:21;;;;;;;3.60;3.30;;;;;;;;;;10199613;29;20298;-72
2022/08/04 02:06:21;;;;;;;3.53;3.23;;;;;;;;;;10197577;28;20048;-71
2022/08/04 02:11:22;;;;;;;3.73;3.43;;;;;;;;;;10197591;28;20050;-71
2022/08/04 02:16:23;;;;;;;3.72;3.35;;;;;;;;;;10198115;29;20059;-72
2022/08/04 02:21:24;;;;;;;4.17;3.60;;;;;;;;;;10200572;28;20051;-73
2022/08/04 02:26:27;;;;;;;3.80;3.50;;;;;;;;;;10199871;29;20291;-72
2022/08/04 02:31:27;;;;;;;;;;;;;;;;;;10179222;29;20076;-72
2022/08/04 02:36:30;;;;;;;3.88;3.40;;;;;;;;;;10206567;28;20401;-72
2022/08/04 02:41:31;;;;;;;3.42;3.13;;;;;;;;;;10172728;28;20110;-72
2022/08/04 02:46:33;;;;;;;3.70;3.40;;;;;;;;;;10205450;28;20120;-73
2022/08/04 02:51:39;;;;;;;3.75;3.45;;;;;;;;;;10204395;28;20525;-73
2022/08/04 02:56:42;;;;;;;3.80;3.50;;;;;;;;;;10210163;28;20069;-72
2022/08/04 03:01:42;;;;;;;5.07;4.15;;;;;;;;;;10206002;28;20376;-72
2022/08/04 03:06:58;;;;;;;4.22;3.83;;;;;;;;;;10203919;28;20040;-72
2022/08/04 03:12:13;;;;;;;4.30;3.90;;;;;;;;;;10206969;28;20151;-73
2022/08/04 03:17:32;;;;;;;3.80;3.50;;;;;;;;;;10207249;28;20047;-73
2022/08/04 03:22:33;;;;;;;5.55;3.88;;;;;;;;;;10212405;28;20051;-72
2022/08/04 03:27:52;;;;;;;4.10;3.80;;;;;;;;;;10215218;28;20070;-72
2022/08/04 03:32:58;;;;;;;4.40;4.00;;;;;;;;;;10208916;28;20074;-73
2022/08/04 03:38:08;;;;;;;3.83;3.53;;;;;;;;;;10208098;28;20047;-73
2022/08/04 03:43:33;;;;;;;3.70;3.40;;;;;;;;;;10197918;28;20047;-72
2022/08/04 03:48:45;;;;;;;4.15;3.85;;;;;;;;;;10219118;28;20150;-72
2022/08/04 03:54:02;;;;;;;3.93;3.63;;;;;;;;;;10202576;28;20059;-72
2022/08/04 03:59:08;;;;;;;4.65;4.25;;;;;;;;;;10203756;28;20047;-72
2022/08/04 04:04:11;;;;;;;4.30;3.90;;;;;;;;;;10201333;28;20107;-72
2022/08/04 04:09:37;;;;;;;4.97;4.57;;;;;;;;;;10202638;28;20075;-72
2022/08/04 04:14:38;;;;;;;4.35;3.95;;;;;;;;;;10203256;28;20051;-71
2022/08/04 04:20:01;;;;;;;4.40;4.00;;;;;;;;;;10202695;28;20052;-75
2022/08/04 04:25:16;;;;;;;3.92;3.63;;;;;;;;;;10221263;28;20063;-75
2022/08/04 04:30:38;;;;;;;4.15;3.80;;;;;;;;;;10223303;28;20107;-74
2022/08/04 04:35:45;;;;;;;4.45;4.03;;;;;;;;;;10219122;28;20079;-71
2022/08/04 04:41:03;;;;;;;4.63;4.10;;;;;;;;;;10229954;28;20074;-70
2022/08/04 04:46:22;;;;;;;4.60;4.00;;;;;;;;;;10209565;28;20069;-71
2022/08/04 04:51:30;;;;;;;4.28;3.88;;;;;;;;;;10209865;28;20035;-73
2022/08/04 04:56:31;;;;;;;3.97;3.58;;;;;;;;;;10203212;28;20050;-71
2022/08/04 05:01:50;;;;;;;3.75;3.45;;;;;;;;;;10199848;28;20043;-76
2022/08/04 05:07:10;;;;;;;3.60;3.30;;;;;;;;;;10200376;28;20051;-69
2022/08/04 05:12:27;;;;;;;4.93;4.38;;;;;;;;;;10206477;28;20746;-69
2022/08/04 05:17:37;;;;;;;4.75;3.80;;;;;;;;;;10180960;29;20062;-70
2022/08/04 05:22:46;;;;;;;3.90;3.60;;;;;;;;;;10207662;28;20055;-74
2022/08/04 05:27:56;;;;;;;3.85;3.25;;;;;;;;;;10188037;28;20102;-71
2022/08/04 05:33:02;;;;;;;3.30;3.00;;;;;;;;;;10204151;28;20073;-76
2022/08/04 05:38:03;;;;;;;3.45;3.15;;;;;;;;;;10200966;28;20052;-69
2022/08/04 05:43:05;;;;;;;3.10;2.90;;;;;;;;;;10184325;29;20075;-71
2022/08/04 05:48:07;;;;;;;4.93;3.53;;;;;;;;;;10160314;29;20436;-69
2022/08/04 05:53:09;;;;;;;4.77;4.13;;;;;;;;;;10155869;28;20416;-68
2022/08/04 05:58:10;;;;;;;4.90;3.97;;;;;;;;;;10155860;29;20199;-71
2022/08/04 06:03:11;;;;;;;3.42;3.10;;;;;;;;;;10157166;29;20803;-68
2022/08/04 06:08:11;;;;;;;5.28;4.05;;;;;;;;;;10159214;28;20119;-71
2022/08/04 06:13:13;;;;;;;4.37;3.97;;;;;;;;;;10156698;28;20523;-67
2022/08/04 06:18:14;;;;;;;3.35;3.05;;;;;;;;;;10160854;29;20291;-72
2022/08/04 06:23:15;;;;;;;2.80;2.60;;;;;;;;;;10160799;28;20070;-68
2022/08/04 06:28:16;;;;;;;3.30;3.00;;;;;;;;;;10176874;29;20044;-69
2022/08/04 06:33:26;;;;;;;3.77;2.77;;;;;;;;;;10164438;28;20051;-73
2022/08/04 06:38:28;;;;;;;3.20;2.90;;;;;;;;;;10159405;28;20099;-70
2022/08/04 06:43:28;;;;;;;3.17;2.97;;;;;;;;;;10159872;29;20052;-68
2022/08/04 06:48:30;;;;;;;4.07;3.10;;;;;;;;;;10161344;28;20040;-68
2022/08/04 06:53:30;;;;;;;4.05;3.25;;;;;;;;;;10161025;29;20036;-77
2022/08/04 06:58:31;;;;;;;4.82;3.10;;;;;;;;;;10161396;29;20130;-68
2022/08/04 07:03:32;;;;;;;3.40;3.10;;;;;;;;;;10156407;28;20127;-72
2022/08/04 07:08:34;;;;;;;4.53;3.10;;;;;;;;;;10158052;29;20106;-72
2022/08/04 07:13:34;;;;;;;3.83;2.90;;;;;;;;;;10157813;28;20124;-72
2022/08/04 07:18:35;;;;;;;7.75;3.00;;;;;;;;;;10162725;29;20101;-72
2022/08/04 07:23:35;;;;;;;5.05;3.00;;;;;;;;;;10167471;29;20048;-71
2022/08/04 07:28:36;;;;;;;4.87;3.30;;;;;;;;;;10169687;28;20040;-70
2022/08/04 07:33:37;;;;;;;4.10;2.70;;;;;;;;;;10167495;28;20058;-70
2022/08/04 07:38:38;;;;;;;5.77;3.73;;;;;;;;;;10163371;28;20104;-69
2022/08/04 07:43:38;;;;;;;3.38;3.10;;;;;;;;;;10164917;28;20140;-71
2022/08/04 07:48:39;;;;;;;3.93;3.37;;;;;;;;;;10166515;28;20479;-73
2022/08/04 07:53:41;;;;;;;3.67;3.17;;;;;;;;;;10163844;28;20040;-72
2022/08/04 07:58:41;;;;;;;3.40;3.10;;;;;;;;;;10167047;29;20397;-71
2022/08/04 08:03:42;;;;;;;4.40;3.07;;;;;;;;;;10164230;28;20048;-70
2022/08/04 08:08:42;;;;;;;5.70;4.40;;;;;;;;;;10165253;29;20461;-69
2022/08/04 08:13:44;;;;;;;3.47;3.17;;;;;;;;;;10159473;28;20187;-75
2022/08/04 08:18:45;;;;;;;3.83;3.00;;;;;;;;;;10166177;28;20155;-70
2022/08/04 08:23:46;;;;;;;4.57;2.70;;;;;;;;;;10150601;29;20064;-71
2022/08/04 08:28:46;;;;;;;7.37;2.87;;;;;;;;;;10169672;29;20135;-73
2022/08/04 08:33:47;;;;;;;2.80;2.60;;;;;;;;;;10166398;28;20134;-69
2022/08/04 08:38:48;;;;;;;;;;;;;;;;;;10170888;28;20052;-69
2022/08/04 08:43:48;;;;;;;3.30;2.55;;;;;;;;;;10180636;29;20287;-69
2022/08/04 08:49:07;;;;;;;3.00;2.80;;;;;;;;;;10164495;29;20068;-70
2022/08/04 08:54:28;;;;;;;4.60;2.67;;;;;;;;;;10164058;28;20044;-72
2022/08/04 08:59:29;;;;;;;3.50;2.30;;;;;;;;;;10164795;28;20158;-71
2022/08/04 09:04:55;;;;;;;4.73;3.40;;;;;;;;;;10162708;28;20048;-70
2022/08/04 09:10:02;;;;;;;4.03;2.70;;;;;;;;;;10145324;29;20055;-73
2022/08/04 09:15:10;;;;;;;2.97;2.10;;;;;;;;;;10163251;28;20055;-71
2022/08/04 09:20:11;;;;;;;2.88;2.30;;;;;;;;;;10169859;28;20118;-73
2022/08/04 09:25:14;;;;;;;2.77;2.10;;;;;;;;;;10174561;29;20147;-71
2022/08/04 09:30:17;;;;;;;2.30;2.10;;;;;;;;;;10162266;29;20491;-72
2022/08/04 09:35:24;;;;;;;4.60;2.65;;;;;;;;;;10155705;28;20155;-72
2022/08/04 09:40:26;;;;;;;2.38;2.17;;;;;;;;;;10163673;28;20577;-73
2022/08/04 09:45:30;;;;;;;3.78;2.10;;;;;;;;;;10165800;29;20062;-72
2022/08/04 09:50:37;;;;;;;2.58;2.30;;;;;;;;;;10179090;29;20048;-72
2022/08/04 09:55:40;;;;;;;3.38;2.50;;;;;;;;;;10184592;28;20058;-71
2022/08/04 10:00:45;;;;;;;3.33;2.50;;;;;;;;;;10174734;28;20446;-73
2022/08/04 10:06:04;;;;;;;2.53;2.05;;;;;;;;;;10170504;29;20150;-72
2022/08/04 10:11:07;;;;;;;2.47;2.25;;;;;;;;;;10193682;28;20060;-73
2022/08/04 10:16:08;;;;;;;2.10;2.00;;;;;;;;;;10186718;29;20094;-72
2022/08/04 10:21:08;;;;;;;;;;;;;;;;;;10185208;29;20143;-74
2022/08/04 10:26:22;;;;;;;2.67;2.10;;;;;;;;;;10177173;29;19926;-74
2022/08/04 10:31:27;;;;;;;2.20;2.00;;;;;;;;;;10175985;29;20048;-74
2022/08/04 10:36:30;;;;;;;2.72;2.10;;;;;;;;;;10189040;28;20072;-74
2022/08/04 10:41:38;;;;;;;2.58;2.13;;;;;;;;;;10180347;29;20063;-73
2022/08/04 10:46:48;;;;;;;4.40;2.08;;;;;;;;;;10204297;28;20052;-74
2022/08/04 10:51:51;;;;;;;1.90;1.80;;;;;;;;;;10171748;29;20071;-74
2022/08/04 10:57:12;;;;;;;2.38;2.17;;;;;;;;;;10166161;28;20135;-72
2022/08/04 11:02:26;;;;;;;2.00;1.90;;;;;;;;;;10165295;28;20130;-73
2022/08/04 11:07:32;;;;;;;2.92;2.20;;;;;;;;;;10168976;28;20048;-81
2022/08/04 11:12:33;;;;;;;2.40;2.30;;;;;;;;;;10191510;28;20055;-84
2022/08/04 11:17:45;;;;;;;2.42;2.10;;;;;;;;;;10186333;28;20052;-81
2022/08/04 11:22:51;;;;;;;2.35;1.83;;;;;;;;;;10209939;28;20114;-82
2022/08/04 11:28:14;;;;;;;3.58;2.47;;;;;;;;;;10175388;28;20060;-83
2022/08/04 11:33:37;;;;;;;2.58;2.20;;;;;;;;;;10185588;29;20167;-80
2022/08/04 11:38:47;;;;;;;2.47;2.00;;;;;;;;;;10188022;28;20055;-80
2022/08/04 11:43:52;;;;;;;1.93;1.83;;;;;;;;;;10183587;28;20503;-82
2022/08/04 11:49:03;;;;;;;2.13;2.00;;;;;;;;;;10174899;28;20040;-81
2022/08/04 11:54:06;;;;;;;;;;;;;;;;;;10212047;28;20339;-82
2022/08/04 11:59:07;;;;;;;2.25;1.90;;;;;;;;;;10202718;28;19919;-80
2022/08/04 12:04:11;;;;;;;2.22;2.03;;;;;;;;;;10208418;28;20087;-81
2022/08/04 12:09:32;;;;;;;5.55;2.10;;;;;;;;;;10207380;28;20047;-81
2022/08/04 12:14:39;;;;;;;2.08;1.88;;;;;;;;;;10205895;28;20056;-82
2022/08/04 12:19:44;;;;;;;2.78;2.13;;;;;;;;;;10204455;28;20056;-82
2022/08/04 12:24:53;;;;;;;2.35;1.98;;;;;;;;;;10193902;28;20121;-82
2022/08/04 12:30:14;;;;;;;1.70;1.60;;;;;;;;;;10155407;29;20076;-85
2022/08/04 12:35:34;;;;;;;3.15;1.65;;;;;;;;;;10200335;28;20056;-81
2022/08/04 12:40:45;;;;;;;3.15;1.85;;;;;;;;;;10198203;28;20112;-81
2022/08/04 12:46:04;;;;;;;1.98;1.70;;;;;;;;;;10193942;28;20046;-80
2022/08/04 12:51:15;;;;;;;1.90;1.80;;;;;;;;;;10225167;29;20067;-81
2022/08/04 12:56:27;;;;;;;3.13;1.65;;;;;;;;;;10238061;28;20060;-80
2022/08/04 13:01:29;;;;;;;2.65;1.75;;;;;;;;;;10231280;28;20044;-82
2022/08/04 13:06:35;;;;;;;3.72;2.30;;;;;;;;;;10222378;29;20118;-84
2022/08/04 13:11:39;;;;;;;2.38;2.20;;;;;;;;;;10208401;28;20198;-82
2022/08/04 13:16:41;;;;;;;1.77;1.67;;;;;;;;;;10214324;28;20059;-82
2022/08/04 13:21:52;;;;;;;2.30;2.10;;;;;;;;;;10213027;29;20046;-80
2022/08/04 13:26:55;;;;;;;2.15;1.70;;;;;;;;;;10175737;28;20059;-81
2022/08/04 13:31:58;;;;;;;1.88;1.70;;;;;;;;;;10179286;28;20135;-81
2022/08/04 13:37:04;;;;;;;2.88;2.00;;;;;;;;;;10168540;28;20047;-82
2022/08/04 13:42:07;;;;;;;2.85;1.85;;;;;;;;;;10219316;28;20148;-80
2022/08/04 13:47:11;;;;;;;2.42;2.22;;;;;;;;;;10191667;28;20119;-82
2022/08/04 13:52:13;;;;;;;2.00;1.90;;;;;;;;;;10194832;29;20044;-82
2022/08/04 13:57:46;;;;;;;2.45;2.00;;;;;;;;;;10228662;29;20050;-81
2022/08/04 14:03:14;;;;;;;2.13;1.90;;;;;;;;;;10226394;28;20028;-81
2022/08/04 14:08:19;;;;;;;2.42;2.15;;;;;;;;;;10222005;28;20117;-80
2022/08/04 14:13:44;;;;;;;1.95;1.80;;;;;;;;;;10184895;28;20035;-82
2022/08/04 14:18:46;;;;;;;2.90;2.10;;;;;;;;;;10263551;28;20067;-83
2022/08/04 14:23:52;;;;;;;3.50;2.13;;;;;;;;;;10246130;28;20043;-81
2022/08/04 14:28:58;;;;;;;1.98;1.88;;;;;;;;;;10251302;28;20047;-83
2022/08/04 14:34:06;;;;;;;3.80;1.90;;;;;;;;;;10264096;28;20103;-81
2022/08/04 14:39:09;;;;;;;4.20;2.30;;;;;;;;;;10214100;28;20046;-82
2022/08/04 14:44:12;;;;;;;3.10;2.10;;;;;;;;;;10260844;28;20047;-83
2022/08/04 14:49:13;;;;;;;5.13;1.90;;;;;;;;;;10253011;28;20069;-81
2022/08/04 14:54:18;;;;;;;2.50;2.20;;;;;;;;;;10239451;28;20146;-82
2022/08/04 14:59:28;;;;;;;2.15;1.95;;;;;;;;;;10240315;28;20039;-80
2022/08/04 15:04:31;;;;;;;1.90;1.75;;;;;;;;;;10231219;28;20023;-81
2022/08/04 15:09:32;;;;;;;3.78;2.08;;;;;;;;;;10244632;28;20049;-82
2022/08/04 15:14:35;;;;;;;2.00;1.90;;;;;;;;;;10237764;28;20048;-80
2022/08/04 15:19:38;;;;;;;3.83;2.00;;;;;;;;;;10247663;28;20121;-82
2022/08/04 15:24:55;;;;;;;3.22;2.30;;;;;;;;;;10248765;28;20043;-80
2022/08/04 15:30:00;;;;;;;2.42;2.00;;;;;;;;;;10253080;28;20050;-83
2022/08/04 15:35:07;;;;;;;2.30;2.10;;;;;;;;;;10254306;28;20052;-81
2022/08/04 15:40:17;;;;;;;2.20;2.00;;;;;;;;;;10226730;28;20055;-81
2022/08/04 15:45:25;;;;;;;2.33;2.13;;;;;;;;;;10227196;28;20060;-82
2022/08/04 15:50:25;;;;;;;2.22;2.10;;;;;;;;;;10220455;28;20050;-83
2022/08/04 15:55:40;;;;;;;2.00;1.80;;;;;;;;;;10232691;28;20035;-80
2022/08/04 16:00:48;;;;;;;2.72;2.15;;;;;;;;;;10247978;28;20130;-83
2022/08/04 16:06:34;;;;;;;2.58;2.00;;;;;;;;;;10255610;28;20103;-81
2022/08/04 16:11:40;;;;;;;2.83;2.38;;;;;;;;;;10261292;28;20050;-82
2022/08/04 16:17:15;;;;;;;5.22;2.30;;;;;;;;;;10261324;28;20031;-83
2022/08/04 16:22:35;;;;;;;2.38;2.20;;;;;;;;;;10252160;28;20042;-82
2022/08/04 16:27:43;;;;;;;2.92;2.60;;;;;;;;;;10247551;28;20043;-84
2022/08/04 16:32:47;;;;;;;2.60;2.08;;;;;;;;;;10254472;28;20086;-80
2022/08/04 16:37:51;;;;;;;4.38;3.97;;;;;;;;;;10239582;28;20042;-84
2022/08/04 16:42:52;;;;;;;2.40;2.20;;;;;;;;;;10253011;28;20043;-80
2022/08/04 16:47:53;;;;;;;2.78;2.13;;;;;;;;;;10204555;28;20094;-81
2022/08/04 16:52:58;;;;;;;2.35;2.15;;;;;;;;;;10228799;28;20128;-80
2022/08/04 16:58:06;;;;;;;2.50;2.30;;;;;;;;;;10226176;28;20667;-81
2022/08/04 17:03:08;;;;;;;2.10;2.00;;;;;;;;;;10233188;28;20507;-82
2022/08/04 17:08:10;;;;;;;2.90;2.17;;;;;;;;;;10245127;28;20054;-82
2022/08/04 17:13:28;;;;;;;2.30;2.10;;;;;;;;;;10234896;28;20048;-83
2022/08/04 17:18:30;;;;;;;2.53;2.20;;;;;;;;;;10246457;28;20071;-83
2022/08/04 17:23:32;;;;;;;2.90;2.63;;;;;;;;;;10260754;28;20028;-82
2022/08/04 17:28:37;;;;;;;2.60;2.40;;;;;;;;;;10247868;28;20032;-83
2022/08/04 17:33:39;;;;;;;2.40;2.20;;;;;;;;;;10222486;28;20514;-83
2022/08/04 17:38:53;;;;;;;2.28;2.10;;;;;;;;;;10229834;28;20491;-83
2022/08/04 17:44:00;;;;;;;2.85;1.90;;;;;;;;;;10233195;28;20236;-83
2022/08/04 17:49:05;;;;;;;2.45;2.25;;;;;;;;;;10244057;28;20132;-82
2022/08/04 17:54:13;;;;;;;2.47;2.28;;;;;;;;;;10207003;28;20048;-79
2022/08/04 17:59:23;;;;;;;2.67;2.47;;;;;;;;;;10232695;28;20087;-84
2022/08/04 18:04:35;;;;;;;2.72;2.53;;;;;;;;;;10229789;28;20103;-85
2022/08/04 18:09:46;;;;;;;3.03;2.83;;;;;;;;;;10252251;28;20116;-82
2022/08/04 18:14:48;;;;;;;3.00;2.38;;;;;;;;;;10246252;28;20070;-81
2022/08/04 18:20:00;;;;;;;2.28;2.08;;;;;;;;;;10224081;28;20066;-83
2022/08/04 18:25:05;;;;;;;2.85;2.65;;;;;;;;;;10242994;28;20042;-81
2022/08/04 18:30:07;;;;;;;2.70;2.50;;;;;;;;;;10236679;28;20055;-87
2022/08/04 18:35:09;;;;;;;2.67;2.40;;;;;;;;;;10235788;28;20110;-81
2022/08/04 18:40:23;;;;;;;2.65;2.45;;;;;;;;;;10237457;28;20062;-83
2022/08/04 18:45:26;;;;;;;2.60;2.40;;;;;;;;;;10224730;28;20039;-80
2022/08/04 18:50:26;;;;;;;5.38;4.88;;;;;;;;;;10213740;28;20063;-80
2022/08/04 18:55:30;;;;;;;;;;;;;;;;;;10205742;28;20059;-82
2022/08/04 19:00:37;;;;;;;5.75;5.30;;;;;;;;;;10235072;28;19915;-79
2022/08/04 19:05:40;;;;;;;4.50;4.10;;;;;;;;;;10224565;28;20040;-82
2022/08/04 19:10:41;;;;;;;4.35;3.97;;;;;;;;;;10230408;28;20046;-83
2022/08/04 19:16:05;;;;;;;4.90;4.40;;;;;;;;;;10238764;28;20052;-82
2022/08/04 19:21:06;;;;;;;4.40;4.00;;;;;;;;;;10238081;28;20062;-82
2022/08/04 19:26:16;;;;;;;4.28;3.97;;;;;;;;;;10203678;28;20109;-81
2022/08/04 19:31:43;;;;;;;4.13;3.50;;;;;;;;;;10167565;28;20083;-80
2022/08/04 19:37:25;;;;;;;4.90;4.50;;;;;;;;;;10194550;28;20538;-81
2022/08/04 19:42:45;;;;;;;;;;;;;;;;;;;;;
2022/08/04 19:48:04;;;;;;;6.47;5.88;;;;;;;;;;10219891;28;20051;-82
2022/08/04 19:53:04;;;;;;;6.20;5.60;;;;;;;;;;10217931;28;20080;-80
2022/08/04 19:58:06;;;;;;;5.32;4.82;;;;;;;;;;10246718;28;20111;-80
2022/08/04 20:03:18;;;;;;;;;;;;;;;;;;;;;
2022/08/04 20:08:34;;;;;;;4.60;4.10;;;;;;;;;;10252317;28;20087;-85
2022/08/04 20:13:35;;;;;;;5.63;5.00;;;;;;;;;;10257945;28;20070;-82
2022/08/04 20:18:35;;;;;;;5.57;5.07;;;;;;;;;;10233431;28;20372;-89
2022/08/04 20:23:36;;;;;;;5.60;5.10;;;;;;;;;;10224057;28;20040;-84
2022/08/04 20:29:24;;;;;;;4.63;4.32;;;;;;;;;;10227041;28;20523;-83
2022/08/04 20:34:16;;;;;;;5.00;4.45;;;;;;;;;;10255293;28;20051;-80
2022/08/04 20:39:19;;;;;;;4.78;4.38;;;;;;;;;;10229197;28;20062;-81
2022/08/04 20:44:19;;;;;;;5.40;4.63;;;;;;;;;;10235786;28;20425;-80
2022/08/04 20:49:20;;;;;;;5.53;4.63;;;;;;;;;;10227998;28;20038;-81
2022/08/04 20:54:20;;;;;;;4.63;4.10;;;;;;;;;;10225492;28;20063;-82
2022/08/04 20:59:25;;;;;;;4.65;4.20;;;;;;;;;;10234636;28;20056;-79
2022/08/04 21:04:34;;;;;;;4.57;4.17;;;;;;;;;;10230417;28;20051;-81
2022/08/04 21:09:43;;;;;;;5.03;4.53;;;;;;;;;;10214795;28;20067;-85
2022/08/04 21:14:45;;;;;;;4.88;4.38;;;;;;;;;;10222348;28;20131;-84
2022/08/04 21:19:48;;;;;;;4.90;4.50;;;;;;;;;;10237483;28;20043;-84
2022/08/04 21:25:13;;;;;;;5.00;4.60;;;;;;;;;;10245759;28;20030;-84
2022/08/04 21:30:27;;;;;;;4.35;4.05;;;;;;;;;;10224613;28;20039;-82
2022/08/04 21:35:47;;;;;;;5.00;4.60;;;;;;;;;;10250393;28;20059;-84
2022/08/04 21:40:52;;;;;;;5.23;4.73;;;;;;;;;;10265981;28;20055;-83
2022/08/04 21:45:52;;;;;;;5.47;4.90;;;;;;;;;;10243774;28;20079;-79
2022/08/04 21:50:54;;;;;;;6.07;5.00;;;;;;;;;;10231788;28;20054;-82
2022/08/04 21:55:55;;;;;;;4.90;4.50;;;;;;;;;;10223601;28;20094;-83
2022/08/04 22:00:56;;;;;;;5.00;4.70;;;;;;;;;;10225231;28;20046;-81
2022/08/04 22:05:56;;;;;;;4.93;4.50;;;;;;;;;;10247130;28;20162;-82
2022/08/04 22:10:56;;;;;;;6.13;5.07;;;;;;;;;;10268851;28;20061;-81
2022/08/04 22:16:00;;;;;;;5.43;4.93;;;;;;;;;;10243651;28;20051;-80
2022/08/04 22:21:01;;;;;;;5.33;4.87;;;;;;;;;;10251709;28;20027;-81
2022/08/04 22:26:04;;;;;;;5.07;4.67;;;;;;;;;;10235343;28;20055;-82
2022/08/04 22:31:04;;;;;;;5.55;5.00;;;;;;;;;;10247184;28;20055;-82
2022/08/04 22:36:05;;;;;;;4.80;4.40;;;;;;;;;;10239203;28;20059;-81
2022/08/04 22:41:08;;;;;;;5.78;5.18;;;;;;;;;;10220513;28;20103;-81
2022/08/04 22:46:10;;;;;;;5.63;5.13;;;;;;;;;;10241552;28;20044;-82
2022/08/04 22:51:12;;;;;;;4.78;4.38;;;;;;;;;;10230455;28;20047;-81
2022/08/04 22:56:15;;;;;;;5.05;4.55;;;;;;;;;;10210737;28;20059;-81
2022/08/04 23:01:17;;;;;;;4.70;4.38;;;;;;;;;;10209399;28;20036;-82
2022/08/04 23:06:21;;;;;;;4.90;4.50;;;;;;;;;;10220390;28;20047;-81
2022/08/04 23:11:23;;;;;;;5.93;5.38;;;;;;;;;;10215278;28;20111;-81
2022/08/04 23:16:23;;;;;;;5.30;4.80;;;;;;;;;;10215780;28;20069;-83
2022/08/04 23:21:24;;;;;;;5.53;5.13;;;;;;;;;;10226205;28;20653;-83
2022/08/04 23:26:33;;;;;;;5.28;4.78;;;;;;;;;;10237528;28;20050;-82
2022/08/04 23:31:35;;;;;;;6.38;5.80;;;;;;;;;;10217758;28;20492;-82
2022/08/04 23:36:39;;;;;;;5.30;4.90;;;;;;;;;;10212523;28;20056;-82
2022/08/04 23:41:41;;;;;;;5.20;4.80;;;;;;;;;;10210160;28;20050;-81
2022/08/04 23:46:47;;;;;;;5.40;4.90;;;;;;;;;;10222957;28;20063;-82
2022/08/04 23:51:47;;;;;;;5.80;4.90;;;;;;;;;;10224714;28;20048;-82
2022/08/04 23:56:48;;;;;;;4.77;4.37;;;;;;;;;;10255806;28;20083;-85
